createdAt,value
2019-04-21T00:00:27.599Z,24.10
2019-04-21T00:01:03.889Z,23.47
2019-04-21T00:01:38.778Z,23.50
2019-04-21T00:02:05.563Z,23.40
2019-04-21T00:02:39.721Z,25.77
2019-04-21T00:03:18.181Z,24.60
2019-04-21T00:03:50.243Z,26.30
2019-04-21T00:04:27.310Z,25.85
2019-04-21T00:04:57.939Z,25.68
2019-04-21T00:05:38.629Z,25.55
2019-04-21T00:06:18.402Z,26.52
2019-04-21T00:06:49.207Z,25.62
2019-04-21T00:07:20.333Z,24.60
2019-04-21T00:07:50.501Z,24.05
2019-04-21T00:08:33.637Z,23.52
2019-04-21T00:09:02.723Z,24.55
2019-04-21T00:09:33.718Z,24.15
2019-04-21T00:10:06.278Z,23.30
2019-04-21T00:10:44.030Z,25.10
2019-04-21T00:11:41.053Z,24.15
2019-04-21T00:12:48.948Z,24.90
2019-04-21T00:13:21.118Z,24.15
2019-04-21T00:13:47.006Z,25.27
2019-04-21T00:14:22.555Z,23.62
2019-04-21T00:14:49.748Z,24.15
2019-04-21T00:15:27.075Z,23.52
2019-04-21T00:15:53.820Z,24.80
2019-04-21T00:16:32.140Z,25.08
2019-04-21T00:17:02.771Z,24.20
2019-04-21T00:17:27.065Z,22.73
2019-04-21T00:18:02.420Z,23.20
2019-04-21T00:18:41.825Z,23.98
2019-04-21T00:19:11.880Z,23.07
2019-04-21T00:19:39.533Z,23.22
2019-04-21T00:20:20.469Z,22.85
2019-04-21T00:20:49.796Z,23.25
2019-04-21T00:21:26.566Z,24.00
2019-04-21T00:21:58.123Z,23.57
2019-04-21T00:22:34.493Z,24.12
2019-04-21T00:23:15.293Z,23.95
2019-04-21T00:23:41.166Z,23.75
2019-04-21T00:24:17.723Z,22.42
2019-04-21T00:24:52.137Z,22.80
2019-04-21T00:25:25.333Z,23.73
2019-04-21T00:25:54.207Z,23.62
2019-04-21T00:26:33.529Z,24.30
2019-04-21T00:27:03.902Z,23.83
2019-04-21T00:27:36.887Z,23.45
2019-04-21T00:28:20.144Z,24.15
2019-04-21T00:28:54.032Z,24.52
2019-04-21T00:29:21.287Z,23.60
2019-04-21T00:29:47.610Z,23.95
2019-04-21T00:30:27.498Z,22.27
2019-04-21T00:30:59.279Z,23.90
2019-04-21T00:31:27.059Z,23.67
2019-04-21T00:32:00.653Z,23.90
2019-04-21T00:32:29.220Z,23.80
2019-04-21T00:32:56.342Z,23.57
2019-04-21T00:33:26.657Z,23.95
2019-04-21T00:33:55.144Z,24.43
2019-04-21T00:34:28.105Z,23.75
2019-04-21T00:35:07.697Z,24.50
2019-04-21T00:35:41.445Z,23.10
2019-04-21T00:36:13.171Z,23.38
2019-04-21T00:36:48.820Z,24.20
2019-04-21T00:37:20.770Z,20.12
2019-04-21T00:38:04.833Z,20.92
2019-04-21T00:38:56.088Z,21.87
2019-04-21T00:39:20.913Z,23.40
2019-04-21T00:40:16.616Z,23.45
2019-04-21T00:40:54.093Z,22.42
2019-04-21T00:41:26.031Z,23.45
2019-04-21T00:41:57.716Z,22.07
2019-04-21T00:42:29.176Z,22.65
2019-04-21T00:42:59.884Z,23.92
2019-04-21T00:43:27.977Z,24.27
2019-04-21T00:44:00.709Z,24.55
2019-04-21T00:44:29.467Z,24.43
2019-04-21T00:45:09.786Z,24.57
2019-04-21T00:45:39.215Z,23.83
2019-04-21T00:46:08.476Z,24.43
2019-04-21T00:46:47.719Z,26.45
2019-04-21T00:47:26.666Z,25.48
2019-04-21T00:48:00.425Z,25.10
2019-04-21T00:48:32.932Z,25.75
2019-04-21T00:49:01.994Z,25.20
2019-04-21T00:49:26.930Z,25.62
2019-04-21T00:50:25.643Z,24.25
2019-04-21T00:50:53.217Z,24.00
2019-04-21T00:51:58.385Z,24.12
2019-04-21T00:52:30.315Z,23.50
2019-04-21T00:53:00.434Z,24.25
2019-04-21T00:53:38.480Z,22.48
2019-04-21T00:54:03.967Z,22.87
2019-04-21T00:54:46.371Z,24.02
2019-04-21T00:55:14.271Z,22.75
2019-04-21T00:55:44.602Z,22.22
2019-04-21T00:56:16.247Z,22.32
2019-04-21T00:56:49.601Z,22.17
2019-04-21T00:57:26.045Z,21.93
2019-04-21T00:57:58.639Z,21.23
2019-04-21T00:58:28.665Z,21.95
2019-04-21T00:58:59.580Z,22.22
2019-04-21T00:59:38.331Z,21.80
2019-04-21T01:00:06.967Z,21.33
2019-04-21T01:00:35.007Z,21.52
2019-04-21T01:01:09.105Z,22.37
2019-04-21T01:01:46.028Z,23.12
2019-04-21T01:02:09.424Z,23.85
2019-04-21T01:02:51.123Z,21.20
2019-04-21T01:03:23.045Z,22.77
2019-04-21T01:03:57.897Z,21.60
2019-04-21T01:04:33.761Z,21.15
2019-04-21T01:05:08.757Z,21.40
2019-04-21T01:05:36.590Z,21.33
2019-04-21T01:06:03.676Z,19.77
2019-04-21T01:06:42.814Z,20.35
2019-04-21T01:07:13.827Z,20.20
2019-04-21T01:07:41.053Z,19.80
2019-04-21T01:08:17.671Z,19.35
2019-04-21T01:08:46.829Z,20.62
2019-04-21T01:09:19.763Z,21.05
2019-04-21T01:09:48.788Z,19.80
2019-04-21T01:10:21.117Z,19.67
2019-04-21T01:10:56.951Z,19.42
2019-04-21T01:11:31.832Z,19.15
2019-04-21T01:12:08.372Z,19.87
2019-04-21T01:12:41.793Z,20.77
2019-04-21T01:13:16.886Z,20.85
2019-04-21T01:13:56.788Z,21.07
2019-04-21T01:14:29.875Z,21.33
2019-04-21T01:14:58.151Z,21.05
2019-04-21T01:15:31.164Z,19.90
2019-04-21T01:15:59.774Z,19.00
2019-04-21T01:16:33.224Z,18.55
2019-04-21T01:17:06.777Z,19.95
2019-04-21T01:17:35.673Z,20.05
2019-04-21T01:18:14.861Z,20.08
2019-04-21T01:18:42.729Z,18.57
2019-04-21T01:19:12.107Z,19.25
2019-04-21T01:19:47.030Z,19.37
2019-04-21T01:20:12.903Z,19.85
2019-04-21T01:20:33.424Z,20.20
2019-04-21T01:21:13.639Z,20.52
2019-04-21T01:21:37.588Z,20.40
2019-04-21T01:22:08.832Z,19.82
2019-04-21T01:22:40.080Z,19.87
2019-04-21T01:23:12.577Z,19.17
2019-04-21T01:23:44.557Z,19.57
2019-04-21T01:24:21.631Z,19.70
2019-04-21T01:24:57.866Z,21.52
2019-04-21T01:25:30.259Z,19.07
2019-04-21T01:26:10.634Z,18.87
2019-04-21T01:26:39.298Z,20.32
2019-04-21T01:27:11.137Z,18.37
2019-04-21T01:27:53.771Z,19.73
2019-04-21T01:28:27.028Z,20.02
2019-04-21T01:28:58.406Z,20.05
2019-04-21T01:29:39.132Z,18.62
2019-04-21T01:30:08.509Z,17.92
2019-04-21T01:30:40.992Z,18.00
2019-04-21T01:31:10.997Z,18.73
2019-04-21T01:31:42.227Z,17.45
2019-04-21T01:32:24.223Z,16.23
2019-04-21T01:32:55.792Z,16.12
2019-04-21T01:33:26.297Z,15.35
2019-04-21T01:34:01.257Z,16.37
2019-04-21T01:34:33.012Z,16.73
2019-04-21T01:35:02.630Z,16.02
2019-04-21T01:35:35.428Z,15.43
2019-04-21T01:36:03.750Z,15.28
2019-04-21T01:36:38.826Z,15.90
2019-04-21T01:37:10.895Z,15.78
2019-04-21T01:37:52.783Z,15.32
2019-04-21T01:38:24.505Z,16.00
2019-04-21T01:38:58.318Z,14.80
2019-04-21T01:39:30.807Z,14.53
2019-04-21T01:40:02.518Z,14.80
2019-04-21T01:40:34.861Z,14.70
2019-04-21T01:41:07.096Z,14.75
2019-04-21T01:41:42.836Z,14.35
2019-04-21T01:42:11.998Z,14.53
2019-04-21T01:42:45.493Z,14.00
2019-04-21T01:43:17.606Z,13.65
2019-04-21T01:43:51.549Z,13.98
2019-04-21T01:44:34.876Z,13.55
2019-04-21T01:44:59.467Z,13.55
2019-04-21T01:45:30.707Z,12.75
2019-04-21T01:46:03.933Z,13.70
2019-04-21T01:46:30.998Z,13.25
2019-04-21T01:47:02.823Z,13.25
2019-04-21T01:47:36.135Z,13.05
2019-04-21T01:48:10.935Z,13.15
2019-04-21T01:48:42.764Z,12.40
2019-04-21T01:49:13.052Z,12.78
2019-04-21T01:49:43.067Z,12.58
2019-04-21T01:50:22.209Z,13.25
2019-04-21T01:50:55.510Z,11.73
2019-04-21T01:51:29.594Z,12.60
2019-04-21T01:52:17.805Z,12.25
2019-04-21T01:52:44.161Z,12.90
2019-04-21T01:53:12.858Z,13.03
2019-04-21T01:53:42.452Z,13.05
2019-04-21T01:54:18.620Z,13.53
2019-04-21T01:54:53.405Z,12.33
2019-04-21T01:55:24.956Z,12.40
2019-04-21T01:55:54.301Z,12.82
2019-04-21T01:56:24.513Z,13.55
2019-04-21T01:56:58.510Z,12.80
2019-04-21T01:57:31.917Z,12.63
2019-04-21T01:58:02.093Z,13.78
2019-04-21T01:58:31.489Z,13.48
2019-04-21T01:59:02.721Z,12.70
2019-04-21T01:59:36.685Z,12.40
2019-04-21T02:00:12.273Z,12.35
2019-04-21T02:00:44.825Z,12.88
2019-04-21T02:01:26.129Z,11.55
2019-04-21T02:02:00.423Z,13.00
2019-04-21T02:02:32.193Z,12.65
2019-04-21T02:03:10.040Z,12.78
2019-04-21T02:04:11.727Z,11.83
2019-04-21T02:04:54.310Z,12.78
2019-04-21T02:05:17.453Z,12.50
2019-04-21T02:05:55.345Z,12.03
2019-04-21T02:06:21.386Z,12.35
2019-04-21T02:06:59.917Z,11.28
2019-04-21T02:07:27.521Z,11.88
2019-04-21T02:07:58.065Z,11.97
2019-04-21T02:08:34.615Z,11.70
2019-04-21T02:09:08.162Z,11.95
2019-04-21T02:09:38.065Z,13.10
2019-04-21T02:10:11.477Z,12.37
2019-04-21T02:10:46.277Z,10.53
2019-04-21T02:11:16.934Z,11.93
2019-04-21T02:11:55.110Z,11.97
2019-04-21T02:12:26.580Z,11.00
2019-04-21T02:12:56.754Z,11.35
2019-04-21T02:13:24.683Z,12.00
2019-04-21T02:14:41.246Z,11.48
2019-04-21T02:15:14.332Z,11.70
2019-04-21T02:15:42.329Z,10.10
2019-04-21T02:16:28.134Z,11.60
2019-04-21T02:16:47.781Z,11.00
2019-04-21T02:17:16.376Z,11.22
2019-04-21T02:17:57.487Z,10.98
2019-04-21T02:18:22.023Z,11.10
2019-04-21T02:18:54.497Z,10.60
2019-04-21T02:19:26.177Z,11.03
2019-04-21T02:19:57.799Z,10.75
2019-04-21T02:20:29.347Z,11.45
2019-04-21T02:20:58.018Z,11.20
2019-04-21T02:21:41.987Z,11.60
2019-04-21T02:22:21.569Z,11.80
2019-04-21T02:23:07.374Z,11.38
2019-04-21T02:23:58.726Z,11.53
2019-04-21T02:24:34.924Z,11.90
2019-04-21T02:25:02.842Z,11.97
2019-04-21T02:25:51.024Z,11.63
2019-04-21T02:26:09.824Z,11.63
2019-04-21T02:26:40.025Z,11.85
2019-04-21T02:27:17.704Z,11.38
2019-04-21T02:27:50.227Z,12.10
2019-04-21T02:28:31.803Z,12.05
2019-04-21T02:28:56.552Z,11.53
2019-04-21T02:29:28.567Z,12.03
2019-04-21T02:29:59.825Z,11.45
2019-04-21T02:30:49.245Z,11.75
2019-04-21T02:31:20.929Z,11.97
2019-04-21T02:31:45.199Z,10.90
2019-04-21T02:32:14.917Z,12.05
2019-04-21T02:34:02.660Z,11.63
2019-04-21T02:34:38.364Z,12.15
2019-04-21T02:36:22.715Z,11.83
2019-04-21T02:38:30.727Z,12.33
2019-04-21T02:40:05.123Z,12.88
2019-04-21T02:40:44.152Z,12.53
2019-04-21T02:41:05.815Z,12.35
2019-04-21T02:41:55.715Z,12.95
2019-04-21T02:42:07.880Z,12.80
2019-04-21T02:43:05.381Z,12.90
2019-04-21T02:44:00.691Z,12.47
2019-04-21T02:44:35.360Z,12.20
2019-04-21T02:45:00.385Z,12.63
2019-04-21T02:45:29.683Z,13.10
2019-04-21T02:46:12.570Z,13.40
2019-04-21T02:46:37.962Z,12.90
2019-04-21T02:47:07.137Z,12.95
2019-04-21T02:48:19.382Z,13.30
2019-04-21T02:48:56.417Z,12.68
2019-04-21T02:49:50.768Z,12.18
2019-04-21T02:50:31.725Z,12.70
2019-04-21T02:50:57.628Z,13.28
2019-04-21T02:51:42.147Z,12.75
2019-04-21T02:52:16.171Z,12.68
2019-04-21T02:52:43.671Z,13.50
2019-04-21T02:53:21.229Z,13.38
2019-04-21T02:54:31.486Z,12.58
2019-04-21T02:54:48.232Z,13.35
2019-04-21T02:54:54.008Z,13.08
2019-04-21T02:55:31.242Z,13.62
2019-04-21T02:56:01.092Z,13.40
2019-04-21T02:57:08.942Z,12.88
2019-04-21T02:57:41.477Z,13.83
2019-04-21T02:58:18.222Z,13.48
2019-04-21T02:58:59.482Z,13.20
2019-04-21T02:59:42.286Z,13.78
2019-04-21T03:00:30.291Z,13.98
2019-04-21T03:00:59.737Z,13.70
2019-04-21T03:01:38.213Z,13.15
2019-04-21T03:02:43.045Z,14.45
2019-04-21T03:05:50.745Z,14.55
2019-04-21T03:06:45.760Z,14.30
2019-04-21T03:07:09.306Z,14.78
2019-04-21T03:08:05.703Z,15.05
2019-04-21T03:08:42.791Z,14.87
2019-04-21T03:10:20.565Z,15.20
2019-04-21T03:10:53.253Z,15.53
2019-04-21T03:11:17.422Z,14.98
2019-04-21T03:12:05.249Z,15.80
2019-04-21T03:12:22.540Z,15.60
2019-04-21T03:13:08.131Z,15.78
2019-04-21T03:14:22.362Z,15.43
2019-04-21T03:14:48.118Z,16.20
2019-04-21T03:15:29.609Z,16.62
2019-04-21T03:15:47.216Z,15.65
2019-04-21T03:16:22.884Z,16.82
2019-04-21T03:16:47.182Z,15.68
2019-04-21T03:17:43.654Z,15.80
2019-04-21T03:18:07.566Z,16.00
2019-04-21T03:18:37.673Z,16.70
2019-04-21T03:19:05.019Z,16.40
2019-04-21T03:19:45.518Z,16.67
2019-04-21T03:20:15.078Z,15.58
2019-04-21T03:20:47.338Z,16.12
2019-04-21T03:21:52.509Z,16.62
2019-04-21T03:22:20.018Z,16.50
2019-04-21T03:23:00.186Z,16.75
2019-04-21T03:23:33.108Z,16.70
2019-04-21T03:24:01.206Z,16.82
2019-04-21T03:25:00.886Z,17.42
2019-04-21T03:25:51.971Z,17.20
2019-04-21T03:26:25.005Z,17.32
2019-04-21T03:27:01.385Z,17.82
2019-04-21T03:27:56.957Z,17.32
2019-04-21T03:28:24.196Z,17.42
2019-04-21T03:29:03.318Z,16.75
2019-04-21T03:29:34.898Z,17.23
2019-04-21T03:32:25.832Z,17.15
2019-04-21T03:33:06.017Z,17.02
2019-04-21T03:34:29.338Z,16.15
2019-04-21T03:34:51.450Z,16.95
2019-04-21T03:36:37.254Z,17.37
2019-04-21T03:37:02.745Z,16.82
2019-04-21T03:37:16.616Z,16.12
2019-04-21T03:38:18.896Z,17.80
2019-04-21T03:38:45.362Z,17.45
2019-04-21T03:39:35.073Z,16.30
2019-04-21T03:39:59.765Z,18.30
2019-04-21T03:40:26.708Z,17.02
2019-04-21T03:40:58.777Z,19.15
2019-04-21T03:41:39.971Z,17.27
2019-04-21T03:42:42.664Z,17.42
2019-04-21T03:43:12.722Z,18.07
2019-04-21T03:43:54.678Z,17.32
2019-04-21T03:45:34.847Z,16.73
2019-04-21T03:45:58.517Z,17.23
2019-04-21T03:47:08.366Z,18.15
2019-04-21T03:47:40.558Z,16.48
2019-04-21T03:48:14.811Z,17.67
2019-04-21T03:48:42.732Z,17.77
2019-04-21T03:49:23.036Z,16.15
2019-04-21T03:50:46.952Z,18.48
2019-04-21T03:51:25.820Z,17.77
2019-04-21T03:52:03.529Z,18.10
2019-04-21T03:53:39.984Z,17.55
2019-04-21T03:54:13.692Z,17.75
2019-04-21T03:54:54.114Z,18.25
2019-04-21T03:55:41.579Z,17.73
2019-04-21T03:55:58.709Z,17.65
2019-04-21T03:56:29.625Z,17.20
2019-04-21T03:57:08.854Z,17.40
2019-04-21T03:57:46.629Z,17.45
2019-04-21T03:58:15.207Z,17.73
2019-04-21T03:58:50.504Z,18.70
2019-04-21T03:59:45.526Z,17.00
2019-04-21T04:00:20.899Z,17.80
2019-04-21T04:01:17.963Z,17.67
2019-04-21T04:01:58.434Z,17.87
2019-04-21T04:02:45.123Z,18.42
2019-04-21T04:03:07.661Z,18.70
2019-04-21T04:04:34.196Z,17.75
2019-04-21T04:05:40.656Z,18.05
2019-04-21T04:06:01.960Z,17.82
2019-04-21T04:07:06.086Z,17.82
2019-04-21T04:08:03.890Z,18.45
2019-04-21T04:08:44.010Z,18.10
2019-04-21T04:09:40.064Z,19.17
2019-04-21T04:10:08.205Z,18.27
2019-04-21T04:10:50.334Z,18.15
2019-04-21T04:11:53.033Z,17.75
2019-04-21T04:12:50.349Z,18.42
2019-04-21T04:13:27.633Z,18.07
2019-04-21T04:15:07.152Z,18.45
2019-04-21T04:16:10.297Z,17.25
2019-04-21T04:16:47.471Z,17.92
2019-04-21T04:17:49.926Z,17.77
2019-04-21T04:18:33.428Z,17.67
2019-04-21T04:19:07.755Z,17.75
2019-04-21T04:20:24.049Z,18.02
2019-04-21T04:20:39.920Z,18.05
2019-04-21T04:21:13.313Z,17.40
2019-04-21T04:22:14.643Z,17.17
2019-04-21T04:22:52.608Z,19.30
2019-04-21T04:23:41.568Z,18.40
2019-04-21T04:24:00.864Z,19.17
2019-04-21T04:25:07.350Z,19.73
2019-04-21T04:25:28.075Z,18.42
2019-04-21T04:26:07.390Z,19.32
2019-04-21T04:27:22.450Z,18.32
2019-04-21T04:28:38.482Z,19.57
2019-04-21T04:28:58.026Z,19.27
2019-04-21T04:29:19.565Z,18.95
2019-04-21T04:29:59.207Z,19.05
2019-04-21T04:30:32.008Z,19.55
2019-04-21T04:31:05.663Z,19.48
2019-04-21T04:32:53.747Z,19.17
2019-04-21T04:33:22.795Z,18.65
2019-04-21T04:33:58.072Z,19.65
2019-04-21T04:34:24.838Z,19.32
2019-04-21T04:34:56.916Z,20.32
2019-04-21T04:35:34.495Z,19.40
2019-04-21T04:36:01.528Z,20.15
2019-04-21T04:37:29.561Z,20.02
2019-04-21T04:37:38.884Z,19.15
2019-04-21T04:38:13.136Z,19.50
2019-04-21T04:38:51.391Z,19.98
2019-04-21T04:39:36.727Z,18.50
2019-04-21T04:39:48.747Z,18.80
2019-04-21T04:44:03.220Z,19.07
2019-04-21T04:45:10.257Z,18.80
2019-04-21T04:46:02.191Z,19.52
2019-04-21T04:47:00.006Z,19.82
2019-04-21T04:48:28.950Z,17.50
2019-04-21T04:50:19.718Z,17.12
2019-04-21T04:50:53.559Z,17.82
2019-04-21T04:52:21.005Z,18.90
2019-04-21T04:52:37.851Z,17.55
2019-04-21T04:53:47.404Z,17.80
2019-04-21T04:55:00.704Z,16.67
2019-04-21T04:55:40.999Z,16.77
2019-04-21T04:56:56.364Z,16.62
2019-04-21T04:57:45.174Z,16.32
2019-04-21T05:00:01.212Z,15.85
2019-04-21T05:00:34.483Z,15.98
2019-04-21T05:01:14.755Z,15.15
2019-04-21T05:02:48.956Z,15.28
2019-04-21T05:03:36.456Z,14.85
2019-04-21T05:05:51.059Z,14.00
2019-04-21T05:06:34.849Z,15.58
2019-04-21T05:07:09.727Z,14.18
2019-04-21T05:08:23.930Z,14.33
2019-04-21T05:08:43.838Z,13.72
2019-04-21T05:09:41.385Z,13.10
2019-04-21T05:22:31.470Z,12.33
2019-04-21T05:22:58.193Z,11.50
2019-04-21T05:23:35.147Z,11.22
2019-04-21T05:24:01.388Z,11.15
2019-04-21T05:25:15.634Z,11.33
2019-04-21T05:25:49.971Z,11.15
2019-04-21T05:26:18.509Z,10.95
2019-04-21T05:26:55.412Z,10.82
2019-04-21T05:27:24.935Z,9.63
2019-04-21T05:28:01.058Z,10.88
2019-04-21T05:28:32.725Z,11.18
2019-04-21T05:29:09.010Z,11.10
2019-04-21T05:30:36.901Z,10.10
2019-04-21T05:31:14.083Z,10.55
2019-04-21T05:31:46.322Z,10.93
2019-04-21T05:32:13.381Z,10.45
2019-04-21T05:33:27.609Z,10.43
2019-04-21T05:34:06.096Z,10.13
2019-04-21T05:34:30.513Z,9.78
2019-04-21T05:35:10.849Z,9.63
2019-04-21T05:35:40.560Z,9.48
2019-04-21T05:36:52.095Z,9.30
2019-04-21T05:37:30.500Z,9.98
2019-04-21T05:38:02.016Z,9.10
2019-04-21T05:38:34.722Z,9.25
2019-04-21T05:39:07.190Z,9.85
2019-04-21T05:39:37.516Z,9.37
2019-04-21T05:40:10.535Z,9.28
2019-04-21T05:40:38.844Z,9.15
2019-04-21T05:41:52.890Z,9.60
2019-04-21T05:42:28.881Z,9.08
2019-04-21T05:43:07.978Z,8.80
2019-04-21T05:43:45.453Z,9.95
2019-04-21T05:44:21.039Z,8.90
2019-04-21T05:45:24.177Z,9.00
2019-04-21T05:46:02.562Z,9.53
2019-04-21T05:46:35.673Z,9.40
2019-04-21T05:47:55.915Z,9.25
2019-04-21T05:48:51.894Z,8.55
2019-04-21T05:57:25.431Z,8.20
2019-04-21T05:58:03.951Z,8.25
2019-04-21T05:59:13.796Z,8.33
2019-04-21T05:59:49.150Z,8.90
2019-04-21T06:00:23.681Z,8.45
2019-04-21T06:01:35.866Z,8.18
2019-04-21T06:02:15.208Z,8.40
2019-04-21T06:02:40.036Z,8.70
2019-04-21T06:03:57.352Z,9.05
2019-04-21T06:05:58.044Z,8.38
2019-04-21T06:06:20.673Z,9.25
2019-04-21T06:06:56.810Z,8.68
2019-04-21T06:07:28.803Z,8.90
2019-04-21T06:08:02.777Z,9.20
2019-04-21T06:09:57.196Z,8.30
2019-04-21T06:10:27.334Z,8.70
2019-04-21T06:11:04.806Z,8.95
2019-04-21T06:11:30.577Z,9.13
2019-04-21T06:12:03.173Z,8.55
2019-04-21T06:15:26.578Z,9.35
2019-04-21T06:15:56.265Z,9.70
2019-04-21T06:16:36.425Z,9.18
2019-04-21T06:17:01.519Z,9.75
2019-04-21T06:18:58.669Z,9.30
2019-04-21T06:19:36.705Z,9.58
2019-04-21T06:20:35.347Z,9.08
2019-04-21T06:24:29.953Z,9.53
2019-04-21T06:26:25.432Z,9.03
2019-04-21T06:29:13.352Z,9.40
2019-04-21T06:29:44.008Z,9.55
2019-04-21T06:31:29.129Z,9.40
2019-04-21T06:32:09.380Z,9.88
2019-04-21T06:33:51.558Z,10.25
2019-04-21T06:34:24.877Z,9.75
2019-04-21T06:35:40.211Z,9.33
2019-04-21T06:36:23.987Z,9.73
2019-04-21T06:37:21.895Z,10.25
2019-04-21T06:38:23.453Z,10.75
2019-04-21T06:39:00.019Z,10.03
2019-04-21T06:39:25.590Z,10.08
2019-04-21T06:40:43.828Z,9.53
2019-04-21T06:42:40.117Z,10.28
2019-04-21T06:43:18.279Z,10.45
2019-04-21T06:43:51.129Z,10.13
2019-04-21T06:46:30.855Z,10.15
2019-04-21T06:47:03.309Z,10.40
2019-04-21T06:48:22.460Z,9.65
2019-04-21T06:48:53.692Z,10.15
2019-04-21T06:49:16.210Z,10.55
2019-04-21T06:49:50.562Z,10.53
2019-04-21T06:50:30.203Z,10.50
2019-04-21T06:50:59.437Z,10.72
2019-04-21T06:53:10.737Z,9.85
2019-04-21T06:53:40.834Z,10.23
2019-04-21T06:54:10.190Z,9.65
2019-04-21T06:54:44.381Z,9.13
2019-04-21T06:57:23.129Z,9.48
2019-04-21T06:57:55.890Z,9.95
2019-04-21T06:58:25.217Z,9.73
2019-04-21T06:59:01.537Z,10.13
2019-04-21T06:59:31.668Z,9.93
2019-04-21T07:01:26.550Z,10.00
2019-04-21T07:02:13.180Z,10.18
2019-04-21T07:03:43.930Z,10.72
2019-04-21T07:05:15.433Z,10.10
2019-04-21T07:05:52.458Z,10.30
2019-04-21T07:06:20.088Z,9.60
2019-04-21T07:07:33.291Z,9.85
2019-04-21T07:08:54.390Z,10.20
2019-04-21T07:09:57.234Z,10.38
2019-04-21T07:10:30.498Z,10.05
2019-04-21T07:11:05.394Z,10.32
2019-04-21T07:14:29.372Z,10.68
2019-04-21T07:14:59.513Z,10.08
2019-04-21T07:16:15.330Z,10.00
2019-04-21T07:16:44.718Z,10.72
2019-04-21T07:20:07.262Z,10.13
2019-04-21T07:23:17.484Z,10.38
2019-04-21T07:27:52.336Z,9.13
2019-04-21T07:28:28.512Z,10.38
2019-04-21T07:29:02.889Z,9.43
2019-04-21T07:29:34.445Z,9.88
2019-04-21T07:30:04.322Z,10.15
2019-04-21T07:31:17.868Z,9.73
2019-04-21T07:39:00.248Z,8.10
2019-04-21T07:39:32.568Z,8.63
2019-04-21T07:53:29.777Z,8.03
2019-04-21T07:54:44.435Z,6.50
2019-04-21T07:56:06.544Z,5.95
2019-04-21T07:56:34.992Z,6.12
2019-04-21T08:04:14.977Z,6.50
2019-04-21T08:05:20.000Z,6.28
2019-04-21T08:05:53.723Z,6.60
2019-04-21T08:06:26.847Z,7.30
2019-04-21T08:07:01.253Z,6.70
2019-04-21T08:07:41.527Z,7.15
2019-04-21T08:08:15.900Z,6.75
2019-04-21T08:08:34.245Z,6.62
2019-04-21T08:09:09.044Z,6.15
2019-04-21T08:09:40.989Z,6.42
2019-04-21T08:10:09.113Z,5.70
2019-04-21T08:10:44.297Z,5.25
2019-04-21T08:11:19.649Z,5.55
2019-04-21T08:11:50.033Z,5.97
2019-04-21T08:12:20.106Z,6.25
2019-04-21T08:12:54.221Z,5.50
2019-04-21T08:13:45.888Z,5.50
2019-04-21T08:14:11.623Z,5.70
2019-04-21T08:14:45.962Z,5.15
2019-04-21T08:15:18.245Z,5.50
2019-04-21T08:15:59.559Z,5.80
2019-04-21T08:16:18.697Z,6.47
2019-04-21T08:16:56.034Z,5.70
2019-04-21T08:17:28.475Z,6.35
2019-04-21T08:17:57.089Z,5.40
2019-04-21T08:18:33.518Z,5.40
2019-04-21T08:19:09.187Z,5.70
2019-04-21T08:19:35.421Z,5.53
2019-04-21T08:20:09.602Z,5.20
2019-04-21T08:20:38.736Z,5.60
2019-04-21T08:21:15.116Z,5.33
2019-04-21T08:21:54.102Z,5.17
2019-04-21T08:22:27.164Z,4.95
2019-04-21T08:22:58.919Z,5.50
2019-04-21T08:23:25.377Z,5.62
2019-04-21T08:23:54.830Z,5.45
2019-04-21T08:24:37.221Z,6.08
2019-04-21T08:25:03.255Z,5.45
2019-04-21T08:25:50.845Z,5.33
2019-04-21T08:26:07.939Z,5.20
2019-04-21T08:26:45.154Z,5.85
2019-04-21T08:27:18.948Z,6.15
2019-04-21T08:28:25.917Z,5.50
2019-04-21T08:29:01.075Z,5.90
2019-04-21T08:29:33.381Z,5.30
2019-04-21T08:30:01.484Z,5.53
2019-04-21T08:30:47.524Z,5.40
2019-04-21T08:31:09.831Z,5.93
2019-04-21T08:31:50.681Z,6.83
2019-04-21T08:32:18.098Z,6.72
2019-04-21T08:33:24.681Z,6.15
2019-04-21T08:33:56.476Z,5.93
2019-04-21T08:34:28.397Z,5.67
2019-04-21T08:36:11.017Z,5.50
2019-04-21T08:36:19.072Z,5.67
2019-04-21T08:36:33.957Z,5.57
2019-04-21T08:37:12.270Z,6.10
2019-04-21T08:37:43.184Z,6.27
2019-04-21T08:38:20.045Z,5.20
2019-04-21T08:38:54.066Z,5.37
2019-04-21T08:39:33.156Z,5.20
2019-04-21T08:40:12.281Z,4.90
2019-04-21T08:41:08.661Z,5.53
2019-04-21T08:41:39.454Z,5.40
2019-04-21T08:42:15.534Z,5.63
2019-04-21T08:42:44.800Z,4.93
2019-04-21T08:43:27.538Z,5.90
2019-04-21T08:43:53.207Z,5.53
2019-04-21T08:44:26.178Z,5.50
2019-04-21T08:44:54.117Z,6.23
2019-04-21T08:45:35.365Z,5.40
2019-04-21T08:46:06.722Z,5.33
2019-04-21T08:46:44.686Z,5.33
2019-04-21T08:47:14.141Z,5.17
2019-04-21T08:47:47.692Z,5.10
2019-04-21T08:48:18.136Z,5.20
2019-04-21T08:48:58.970Z,5.27
2019-04-21T08:49:22.307Z,4.73
2019-04-21T08:50:03.506Z,5.33
2019-04-21T08:50:30.920Z,5.33
2019-04-21T08:51:22.506Z,5.97
2019-04-21T08:51:50.455Z,14.60
2019-04-21T08:52:29.495Z,7.23
2019-04-21T08:53:24.783Z,5.40
2019-04-21T08:54:15.266Z,6.80
2019-04-21T08:54:26.474Z,6.17
2019-04-21T08:55:05.608Z,8.37
2019-04-21T08:55:39.745Z,13.83
2019-04-21T08:56:10.035Z,7.30
2019-04-21T08:56:43.532Z,11.00
2019-04-21T08:57:19.674Z,9.17
2019-04-21T08:57:58.318Z,5.50
2019-04-21T08:58:57.534Z,5.10
2019-04-21T08:59:30.941Z,4.83
2019-04-21T09:00:08.800Z,5.13
2019-04-21T09:01:08.851Z,5.33
2019-04-21T09:01:43.160Z,5.17
2019-04-21T09:02:18.165Z,4.67
2019-04-21T09:02:47.579Z,5.00
2019-04-21T09:03:21.324Z,5.23
2019-04-21T09:03:56.637Z,5.20
2019-04-21T09:04:26.174Z,5.43
2019-04-21T09:05:01.475Z,5.10
2019-04-21T09:05:34.312Z,5.47
2019-04-21T09:06:09.275Z,4.70
2019-04-21T09:06:54.182Z,5.33
2019-04-21T09:07:12.810Z,5.10
2019-04-21T09:07:49.564Z,5.00
2019-04-21T09:08:20.244Z,4.90
2019-04-21T09:08:58.307Z,5.40
2019-04-21T09:09:29.110Z,4.73
2019-04-21T09:10:16.820Z,5.23
2019-04-21T09:10:35.449Z,4.93
2019-04-21T09:11:09.774Z,5.10
2019-04-21T09:11:42.102Z,4.87
2019-04-21T09:12:10.934Z,5.33
2019-04-21T09:13:17.217Z,5.10
2019-04-21T09:13:55.855Z,5.20
2019-04-21T09:14:27.328Z,5.33
2019-04-21T09:15:03.098Z,4.47
2019-04-21T09:15:31.124Z,4.93
2019-04-21T09:16:05.125Z,5.43
2019-04-21T09:16:39.677Z,4.90
2019-04-21T09:17:08.060Z,5.13
2019-04-21T09:17:41.199Z,5.30
2019-04-21T09:18:18.554Z,4.97
2019-04-21T09:18:47.323Z,5.03
2019-04-21T09:19:42.422Z,5.23
2019-04-21T09:20:07.999Z,5.40
2019-04-21T09:20:40.161Z,4.77
2019-04-21T09:21:46.920Z,5.40
2019-04-21T09:22:13.207Z,5.00
2019-04-21T09:23:24.203Z,5.00
2019-04-21T09:23:56.032Z,5.17
2019-04-21T09:24:29.446Z,4.87
2019-04-21T09:25:01.460Z,5.10
2019-04-21T09:25:42.471Z,5.10
2019-04-21T09:26:05.107Z,4.77
2019-04-21T09:26:43.170Z,4.80
2019-04-21T09:27:15.383Z,5.10
2019-04-21T09:27:47.020Z,5.30
2019-04-21T09:28:22.678Z,4.93
2019-04-21T09:28:49.415Z,5.70
2019-04-21T09:29:21.703Z,5.10
2019-04-21T09:29:46.732Z,4.90
2019-04-21T09:30:15.510Z,5.00
2019-04-21T09:30:53.510Z,5.10
2019-04-21T09:31:26.021Z,5.37
2019-04-21T09:31:55.528Z,4.83
2019-04-21T09:33:00.516Z,4.90
2019-04-21T09:33:39.058Z,4.97
2019-04-21T09:34:08.372Z,5.33
2019-04-21T09:34:43.767Z,5.20
2019-04-21T09:35:16.925Z,5.47
2019-04-21T09:35:55.468Z,5.53
2019-04-21T09:36:25.086Z,5.23
2019-04-21T09:37:10.470Z,7.50
2019-04-21T09:37:39.715Z,5.93
2019-04-21T09:38:12.670Z,5.10
2019-04-21T09:38:38.481Z,5.87
2019-04-21T09:39:12.974Z,5.23
2019-04-21T09:39:43.937Z,5.90
2019-04-21T09:40:14.980Z,4.93
2019-04-21T09:40:49.051Z,5.30
2019-04-21T09:41:22.431Z,5.00
2019-04-21T09:41:54.418Z,5.17
2019-04-21T09:43:03.179Z,5.30
2019-04-21T09:43:40.264Z,5.07
2019-04-21T09:44:08.746Z,5.37
2019-04-21T09:44:43.597Z,5.63
2019-04-21T09:45:12.598Z,5.10
2019-04-21T09:45:45.373Z,5.23
2019-04-21T09:46:16.605Z,5.47
2019-04-21T09:46:54.028Z,5.60
2019-04-21T09:47:24.513Z,5.27
2019-04-21T09:48:00.796Z,5.40
2019-04-21T09:48:28.105Z,9.20
2019-04-21T09:49:05.375Z,5.60
2019-04-21T09:49:33.950Z,5.57
2019-04-21T09:50:06.634Z,8.10
2019-04-21T09:50:39.577Z,8.30
2019-04-21T09:51:11.093Z,6.80
2019-04-21T09:51:43.758Z,5.80
2019-04-21T09:52:23.203Z,5.30
2019-04-21T09:52:57.487Z,5.80
2019-04-21T09:53:29.462Z,5.60
2019-04-21T09:54:01.979Z,6.17
2019-04-21T09:54:32.024Z,5.30
2019-04-21T09:55:06.937Z,5.50
2019-04-21T09:55:43.978Z,8.10